Main page
METAR-TAF:

METAR-TAF

Airports :

Pula Airport

Pula, Croatia

latitude: 44-54N, longitude: 013-55E, elevation: 63 m

Current weather observation

The report was made 16 minutes ago, at 10:30 UTC
Wind 13 kt from the Northeast, varying between North and East
Temperature 18°C
Humidity 39%
Pressure 1022 hPa
Visibility 10 km or more
no clouds below 1500 m and no cumulonimbus

METAR: LDPL 231030Z 04013KT 010V090 CAVOK 18/04 Q1022 NOSIG

Time: 12:46 (10:46 UTC)

Forecast

The report was made 5 hours and 21 minutes ago, at 05:25 UTC
Forecast valid from 23 at 06 UTC to 24 at 06 UTC
Wind 8 kt from the East/Northeast
Visibility 10 km or more
no clouds below 1500 m and no cumulonimbus
Becoming
from 23 at 14 UTC to 23 at 16 UTC
Wind 8 kt from the West/Northwest
Becoming
from 23 at 18 UTC to 23 at 20 UTC
Wind 2 kt from variable directions

TAF: LDPL 230525Z 2306/2406 06008KT CAVOK TX19/2313Z TN13/2404Z BECMG 2314/2316 29008KT BECMG 2318/2320 VRB02KT

Weather observations and forecasts of more than 4000 airports (METAR and TAF reports).

The available stations are represented by yellow and red dots on the map.

Hover mouse over dot to see the name of the station.

Then click to see weather observations and forecasts.

To change the map : click on the green buttons with a black cross to zoom in, on the green button with a dash to zoom out, or on the green arrows for adjacent maps.


METAR-TAF: